Time;durP1;ratioP1;P1;durP2;ratioP2;P2;SDS_P1;SDS_P2;PMS_P1;PMS_P2;Temp;Humidity;BMP_temperature;BMP_pressure;BME280_temperature;BME280_humidity;BME280_pressure;Samples;Min_cycle;Max_cycle;Signal;HPM_P1;HPM_P2
2022/09/14 00:01:53;;;;;;;7.40;1.55;;;15.10;92.40;;;;;;4919935;28;20082;-67
2022/09/14 00:04:18;;;;;;;7.53;1.73;;;15.10;92.60;;;;;;4951207;28;20082;-66
2022/09/14 00:06:45;;;;;;;8.70;1.83;;;15.00;92.80;;;;;;4949845;28;20467;-66
2022/09/14 00:09:16;;;;;;;7.22;1.95;;;15.00;93.10;;;;;;4918987;28;20072;-67
2022/09/14 00:11:42;;;;;;;10.23;2.42;;;15.10;92.90;;;;;;4950789;28;20432;-66
2022/09/14 00:14:07;;;;;;;9.38;2.20;;;15.10;92.90;;;;;;4962404;28;20046;-65
2022/09/14 00:16:38;;;;;;;5.20;2.00;;;15.10;92.80;;;;;;4950511;28;20047;-67
2022/09/14 00:19:14;;;;;;;8.07;2.25;;;15.00;92.80;;;;;;4930923;28;20511;-66
2022/09/14 00:21:41;;;;;;;9.65;2.20;;;15.00;92.90;;;;;;4945146;28;20051;-66
2022/09/14 00:24:08;;;;;;;9.80;2.17;;;14.90;93.10;;;;;;4937264;28;20042;-67
2022/09/14 00:26:34;;;;;;;8.40;2.35;;;14.80;93.40;;;;;;4967616;28;20465;-67
2022/09/14 00:29:03;;;;;;;7.55;2.17;;;14.70;93.70;;;;;;4953535;28;20066;-66
2022/09/14 00:31:29;;;;;;;11.43;2.40;;;14.60;93.90;;;;;;4934470;28;20135;-66
2022/09/14 00:33:55;;;;;;;8.15;2.25;;;14.60;93.90;;;;;;4940772;28;20070;-66
2022/09/14 00:36:26;;;;;;;6.55;1.98;;;14.50;93.90;;;;;;4956122;28;20050;-66
2022/09/14 00:38:56;;;;;;;7.15;2.08;;;14.40;94.10;;;;;;4950669;28;20055;-66
2022/09/14 00:41:24;;;;;;;8.35;2.08;;;14.40;94.20;;;;;;4964634;28;20046;-66
2022/09/14 00:44:10;;;;;;;8.57;2.20;;;14.30;94.20;;;;;;4945977;28;20050;-66
2022/09/14 00:46:39;;;;;;;10.20;2.22;;;14.30;94.20;;;;;;4942236;28;20043;-66
2022/09/14 00:49:09;;;;;;;;;;;14.30;94.40;;;;;;4969589;28;20081;-67
2022/09/14 00:51:36;;;;;;;7.10;1.95;;;14.30;94.30;;;;;;4953282;28;19965;-67
2022/09/14 00:54:02;;;;;;;14.43;3.35;;;14.20;94.50;;;;;;4954015;28;20476;-65
2022/09/14 00:56:28;;;;;;;8.32;2.30;;;14.20;94.40;;;;;;4923472;28;20051;-65
2022/09/14 00:58:54;;;;;;;10.55;2.25;;;14.20;94.40;;;;;;4957881;28;20234;-66
2022/09/14 01:01:20;;;;;;;7.15;1.80;;;14.20;94.40;;;;;;4953452;28;20086;-66
2022/09/14 01:03:46;;;;;;;10.00;2.53;;;14.30;94.30;;;;;;4936284;28;20228;-66
2022/09/14 01:06:32;;;;;;;11.82;1.75;;;14.20;94.20;;;;;;4977127;28;20512;-66
2022/09/14 01:09:04;;;;;;;8.38;2.50;;;14.30;94.30;;;;;;4951934;28;20046;-66
2022/09/14 01:12:02;;;;;;;7.93;1.95;;;14.30;94.20;;;;;;4952348;28;20043;-66
2022/09/14 01:14:37;;;;;;;8.02;1.90;;;14.30;94.10;;;;;;4943215;28;20057;-67
2022/09/14 01:17:36;;;;;;;9.48;1.98;;;14.30;94.10;;;;;;4939632;28;20046;-66
2022/09/14 01:20:34;;;;;;;8.40;2.25;;;14.30;94.00;;;;;;4954943;28;20046;-66
2022/09/14 01:23:21;;;;;;;9.98;2.03;;;14.30;94.00;;;;;;4948310;28;20059;-66
2022/09/14 01:26:04;;;;;;;11.68;2.17;;;14.40;94.00;;;;;;4953785;28;20093;-66
2022/09/14 01:29:06;;;;;;;8.57;2.58;;;14.40;94.00;;;;;;4953229;28;20055;-66
2022/09/14 01:31:37;;;;;;;9.75;1.95;;;14.40;94.00;;;;;;4971071;28;20404;-66
2022/09/14 01:34:21;;;;;;;12.25;2.50;;;14.40;94.00;;;;;;4952351;28;20043;-66
2022/09/14 01:36:50;;;;;;;8.75;2.15;;;14.40;93.80;;;;;;4969153;28;20047;-66
2022/09/14 01:39:17;;;;;;;6.43;2.22;;;14.40;93.90;;;;;;4938256;28;20097;-67
2022/09/14 01:41:42;;;;;;;8.48;2.78;;;14.40;94.00;;;;;;4942884;29;20742;-66
2022/09/14 01:44:21;;;;;;;12.07;2.15;;;14.30;94.10;;;;;;4919915;29;20090;-67
2022/09/14 01:46:58;;;;;;;7.97;2.10;;;14.30;94.10;;;;;;4933954;28;20145;-66
2022/09/14 01:49:38;;;;;;;9.98;2.47;;;14.30;94.00;;;;;;4958249;28;20050;-66
2022/09/14 01:52:21;;;;;;;10.32;2.20;;;14.30;94.10;;;;;;4920703;28;20051;-67
2022/09/14 01:54:53;;;;;;;8.55;2.83;;;14.30;94.20;;;;;;4951470;28;20055;-66
2022/09/14 01:57:28;;;;;;;11.60;3.17;;;14.30;94.20;;;;;;4969970;28;20047;-66
2022/09/14 01:59:57;;;;;;;9.82;2.63;;;14.20;94.30;;;;;;4920828;28;20158;-66
2022/09/14 02:02:27;;;;;;;9.48;2.63;;;14.10;94.40;;;;;;4963838;28;20502;-66
2022/09/14 02:05:25;;;;;;;12.95;2.80;;;14.10;94.60;;;;;;4973986;28;20039;-66
2022/09/14 02:07:51;;;;;;;6.95;3.03;;;14.00;94.80;;;;;;4956999;28;20053;-66
2022/09/14 02:10:17;;;;;;;11.18;2.90;;;13.90;94.80;;;;;;4928402;29;20047;-66
2022/09/14 02:12:42;;;;;;;11.50;3.35;;;14.00;94.80;;;;;;4935510;28;20058;-67
2022/09/14 02:15:09;;;;;;;7.32;2.67;;;14.10;94.70;;;;;;4953511;28;20073;-65
2022/09/14 02:17:35;;;;;;;9.07;2.50;;;14.10;94.60;;;;;;4953948;28;20054;-65
2022/09/14 02:20:03;;;;;;;11.77;2.80;;;14.10;94.60;;;;;;4972507;28;20790;-66
2022/09/14 02:22:29;;;;;;;8.70;2.25;;;14.10;94.60;;;;;;4962031;28;20047;-66
2022/09/14 02:24:55;;;;;;;9.50;2.58;;;14.10;94.60;;;;;;4969297;28;20050;-65
2022/09/14 02:27:20;;;;;;;12.13;2.10;;;14.10;94.80;;;;;;4944718;29;20054;-67
2022/09/14 02:29:46;;;;;;;7.35;2.25;;;14.10;94.40;;;;;;4948808;28;20067;-66
2022/09/14 02:32:25;;;;;;;5.45;1.98;;;14.20;94.30;;;;;;4942810;29;20067;-66
2022/09/14 02:35:04;;;;;;;12.27;2.50;;;14.10;94.40;;;;;;4964835;28;20109;-66
2022/09/14 02:37:52;;;;;;;4.93;1.67;;;14.10;94.50;;;;;;4954784;28;20083;-66
2022/09/14 02:40:31;;;;;;;11.25;2.60;;;14.00;94.50;;;;;;4953944;28;20057;-65
2022/09/14 02:43:38;;;;;;;9.02;2.63;;;13.90;94.50;;;;;;4957344;28;20055;-66
2022/09/14 02:46:34;;;;;;;8.40;2.07;;;13.80;94.70;;;;;;4936638;28;20073;-65
2022/09/14 02:49:18;;;;;;;10.30;2.30;;;13.80;94.80;;;;;;4889650;29;20288;-66
2022/09/14 02:52:06;;;;;;;6.18;1.90;;;13.80;94.90;;;;;;4910366;29;20108;-66
2022/09/14 02:54:51;;;;;;;6.45;2.17;;;13.80;94.80;;;;;;4955468;28;20078;-67
2022/09/14 02:57:16;;;;;;;6.97;2.00;;;13.70;94.80;;;;;;4959286;28;20078;-66
2022/09/14 02:59:42;;;;;;;11.25;2.70;;;13.70;94.80;;;;;;4948554;29;20097;-66
2022/09/14 03:02:08;;;;;;;11.68;2.42;;;13.70;95.00;;;;;;4983718;28;20061;-66
2022/09/14 03:04:33;;;;;;;14.52;2.15;;;13.50;95.10;;;;;;4921647;28;20060;-68
2022/09/14 03:06:59;;;;;;;7.65;2.20;;;13.60;95.10;;;;;;4955920;28;20058;-66
2022/09/14 03:09:25;;;;;;;8.52;2.58;;;13.60;95.20;;;;;;4952525;28;20517;-66
2022/09/14 03:11:51;;;;;;;6.75;2.17;;;13.60;95.10;;;;;;4934412;29;20490;-66
2022/09/14 03:14:17;;;;;;;7.97;2.40;;;13.70;95.00;;;;;;4951482;28;20097;-65
2022/09/14 03:16:42;;;;;;;8.52;1.90;;;13.70;94.80;;;;;;4969032;28;20046;-66
2022/09/14 03:19:11;;;;;;;12.02;2.05;;;13.70;94.80;;;;;;4968671;28;20062;-66
2022/09/14 03:21:37;;;;;;;9.50;1.92;;;13.70;94.80;;;;;;4965491;28;20414;-67
2022/09/14 03:24:04;;;;;;;12.32;2.20;;;13.70;94.90;;;;;;4952738;28;20050;-66
2022/09/14 03:26:30;;;;;;;5.68;2.25;;;13.70;94.80;;;;;;4963188;28;20098;-66
2022/09/14 03:28:57;;;;;;;6.82;2.10;;;13.80;94.90;;;;;;4947266;28;20046;-66
2022/09/14 03:31:23;;;;;;;4.60;1.65;;;13.80;94.80;;;;;;4948428;28;20042;-65
2022/09/14 03:33:57;;;;;;;7.03;2.22;;;13.80;94.80;;;;;;4905077;28;20047;-65
2022/09/14 03:36:24;;;;;;;6.43;1.98;;;13.90;94.80;;;;;;4950995;28;20055;-66
2022/09/14 03:38:51;;;;;;;8.38;2.00;;;13.90;94.70;;;;;;4942193;28;20047;-66
2022/09/14 03:41:17;;;;;;;9.80;1.92;;;13.90;94.60;;;;;;4918978;28;20043;-65
2022/09/14 03:43:43;;;;;;;10.48;2.55;;;13.90;94.60;;;;;;4950034;28;20049;-65
2022/09/14 03:46:14;;;;;;;13.77;2.00;;;13.90;94.50;;;;;;4934544;28;20054;-65
2022/09/14 03:48:39;;;;;;;6.88;2.40;;;13.80;94.60;;;;;;4936575;28;20098;-66
2022/09/14 03:51:06;;;;;;;8.27;1.80;;;13.80;94.70;;;;;;4956116;28;20085;-66
2022/09/14 03:53:32;;;;;;;9.48;2.05;;;13.90;94.70;;;;;;4950222;28;20058;-67
2022/09/14 03:55:58;;;;;;;15.13;2.10;;;13.90;94.60;;;;;;4946090;28;20051;-66
2022/09/14 03:58:24;;;;;;;8.27;2.65;;;13.90;94.60;;;;;;4947269;28;20082;-66
2022/09/14 04:00:49;;;;;;;10.70;2.30;;;13.90;94.90;;;;;;4934028;28;20801;-67
2022/09/14 04:03:15;;;;;;;8.70;2.53;;;13.90;94.60;;;;;;4934546;28;20051;-66
2022/09/14 04:05:41;;;;;;;10.40;2.20;;;13.90;94.70;;;;;;4945731;28;20362;-65
2022/09/14 04:08:07;;;;;;;5.40;2.10;;;13.90;94.60;;;;;;4945959;28;20429;-66
2022/09/14 04:10:32;;;;;;;9.35;2.20;;;13.80;94.60;;;;;;4965989;28;20146;-67
2022/09/14 04:13:00;;;;;;;9.63;2.00;;;13.80;94.70;;;;;;4972018;28;20110;-66
2022/09/14 04:15:26;;;;;;;9.10;2.65;;;13.80;94.70;;;;;;4979824;28;20047;-66
2022/09/14 04:17:52;;;;;;;9.95;2.00;;;13.80;94.50;;;;;;4955018;28;20054;-66
2022/09/14 04:20:18;;;;;;;6.03;2.00;;;13.80;94.50;;;;;;4969034;28;20051;-65
2022/09/14 04:22:44;;;;;;;5.68;1.67;;;13.80;94.70;;;;;;4949444;28;20751;-65
2022/09/14 04:25:10;;;;;;;6.65;2.13;;;13.80;94.80;;;;;;4953313;28;20126;-65
2022/09/14 04:27:36;;;;;;;7.03;2.20;;;13.80;94.60;;;;;;4951990;29;20078;-65
2022/09/14 04:30:03;;;;;;;8.98;2.20;;;13.80;94.60;;;;;;4939733;29;20108;-65
2022/09/14 04:32:29;;;;;;;7.47;2.00;;;13.80;94.80;;;;;;4979942;28;20047;-66
2022/09/14 04:34:54;;;;;;;6.93;1.95;;;13.80;94.50;;;;;;4954902;28;20061;-65
2022/09/14 04:37:20;;;;;;;7.47;2.20;;;13.80;94.40;;;;;;4968868;28;20211;-66
2022/09/14 04:39:46;;;;;;;7.80;1.92;;;13.80;94.50;;;;;;4972016;28;20051;-66
2022/09/14 04:42:12;;;;;;;9.93;1.98;;;13.80;94.50;;;;;;4944606;28;20172;-66
2022/09/14 04:44:37;;;;;;;9.98;2.38;;;13.70;94.50;;;;;;4979643;28;20536;-66
2022/09/14 04:47:03;;;;;;;8.13;1.90;;;13.70;94.40;;;;;;4954402;28;20069;-66
2022/09/14 04:49:30;;;;;;;8.52;2.20;;;13.70;94.40;;;;;;4955818;28;20464;-66
2022/09/14 04:51:56;;;;;;;8.55;2.17;;;13.60;94.60;;;;;;4943327;28;20081;-66
2022/09/14 04:54:22;;;;;;;10.70;2.72;;;13.60;94.50;;;;;;4967373;28;20477;-66
2022/09/14 04:56:49;;;;;;;7.47;2.00;;;13.60;94.60;;;;;;4980036;28;20054;-65
2022/09/14 04:59:15;;;;;;;5.70;1.75;;;13.60;94.80;;;;;;4952004;28;20500;-65
2022/09/14 05:01:42;;;;;;;7.45;2.03;;;13.60;94.70;;;;;;4955563;28;20059;-66
2022/09/14 05:04:08;;;;;;;5.60;1.80;;;13.60;94.70;;;;;;4933756;28;20842;-66
2022/09/14 05:06:37;;;;;;;11.27;2.08;;;13.60;94.50;;;;;;4967140;28;20143;-66
2022/09/14 05:09:07;;;;;;;10.13;2.10;;;13.60;94.50;;;;;;4964098;28;20132;-65
2022/09/14 05:11:34;;;;;;;10.02;2.55;;;13.60;94.70;;;;;;4931020;28;20042;-65
2022/09/14 05:14:03;;;;;;;9.10;1.92;;;13.60;94.50;;;;;;4909090;28;20140;-65
2022/09/14 05:16:29;;;;;;;;;;;13.60;94.40;;;;;;4954597;28;20400;-65
2022/09/14 05:19:01;;;;;;;10.55;2.10;;;13.60;94.50;;;;;;4964734;28;19940;-65
2022/09/14 05:21:27;;;;;;;6.40;2.03;;;13.70;94.50;;;;;;4933614;28;20046;-65
2022/09/14 05:23:58;;;;;;;9.90;2.10;;;13.60;94.50;;;;;;4924206;28;20113;-65
2022/09/14 05:26:24;;;;;;;8.50;2.08;;;13.60;94.50;;;;;;4942417;28;20053;-65
2022/09/14 05:28:51;;;;;;;6.05;1.92;;;13.60;94.50;;;;;;4949247;28;20133;-64
2022/09/14 05:31:17;;;;;;;6.93;1.88;;;13.60;94.60;;;;;;4942059;28;20038;-64
2022/09/14 05:33:43;;;;;;;6.32;2.15;;;13.60;94.50;;;;;;4936639;28;20047;-65
2022/09/14 05:36:09;;;;;;;8.00;2.50;;;13.60;94.60;;;;;;4951558;28;20342;-65
2022/09/14 05:38:36;;;;;;;8.07;2.53;;;13.60;94.60;;;;;;4936030;28;20038;-65
2022/09/14 05:41:03;;;;;;;7.50;2.23;;;13.50;94.70;;;;;;4960063;28;20043;-64
2022/09/14 05:43:29;;;;;;;6.82;2.20;;;13.50;94.70;;;;;;4945394;28;20192;-65
2022/09/14 05:45:54;;;;;;;8.85;2.28;;;13.50;94.70;;;;;;4936639;28;20055;-65
2022/09/14 05:48:21;;;;;;;10.82;2.47;;;13.60;94.90;;;;;;4961302;28;20054;-65
2022/09/14 05:50:46;;;;;;;9.18;2.08;;;13.50;94.90;;;;;;4959553;28;20044;-66
2022/09/14 05:53:12;;;;;;;8.85;2.25;;;13.60;94.90;;;;;;4962030;28;20062;-66
2022/09/14 05:55:38;;;;;;;12.95;2.10;;;13.60;94.90;;;;;;4954511;28;20054;-65
2022/09/14 05:58:04;;;;;;;6.82;2.17;;;13.60;94.80;;;;;;4962512;28;20476;-65
2022/09/14 06:00:31;;;;;;;9.10;3.05;;;13.60;94.80;;;;;;4971010;28;20065;-65
2022/09/14 06:02:57;;;;;;;8.35;2.40;;;13.70;94.70;;;;;;4945439;28;20051;-64
2022/09/14 06:05:26;;;;;;;7.15;1.70;;;13.60;94.70;;;;;;4934852;28;20057;-64
2022/09/14 06:07:53;;;;;;;6.70;2.10;;;13.60;94.80;;;;;;4954579;28;20057;-65
2022/09/14 06:10:20;;;;;;;9.93;2.05;;;13.60;94.90;;;;;;4966930;28;20225;-65
2022/09/14 06:12:47;;;;;;;9.30;2.35;;;13.50;94.80;;;;;;4978975;28;20043;-66
2022/09/14 06:15:13;;;;;;;15.63;3.20;;;13.60;94.90;;;;;;4940473;28;20081;-65
2022/09/14 06:17:39;;;;;;;32.22;4.95;;;13.60;95.00;;;;;;4970376;28;20193;-65
2022/09/14 06:20:06;;;;;;;19.13;3.78;;;13.60;95.00;;;;;;4927531;28;20055;-65
2022/09/14 06:22:32;;;;;;;31.88;5.22;;;13.60;95.00;;;;;;4965601;28;20737;-66
2022/09/14 06:24:58;;;;;;;23.63;4.75;;;13.70;94.90;;;;;;4952915;28;20074;-65
2022/09/14 06:27:24;;;;;;;12.27;2.70;;;13.70;95.00;;;;;;4969461;28;20112;-66
2022/09/14 06:29:52;;;;;;;13.38;2.33;;;13.80;95.00;;;;;;4956888;28;20050;-66
2022/09/14 06:32:22;;;;;;;14.43;2.60;;;13.70;95.00;;;;;;4968045;28;20053;-65
2022/09/14 06:34:47;;;;;;;5.47;2.30;;;13.80;94.90;;;;;;4935108;28;20054;-66
2022/09/14 06:37:13;;;;;;;9.02;2.45;;;13.80;94.90;;;;;;4968894;28;20058;-66
2022/09/14 06:39:39;;;;;;;6.50;1.98;;;13.90;94.90;;;;;;4931847;28;20050;-66
2022/09/14 06:42:05;;;;;;;8.65;2.10;;;13.90;94.90;;;;;;4948984;28;20061;-65
2022/09/14 06:44:31;;;;;;;7.03;2.13;;;13.90;94.80;;;;;;4942677;28;20058;-65
2022/09/14 06:46:57;;;;;;;8.57;2.30;;;13.90;94.90;;;;;;4956814;28;20058;-66
2022/09/14 06:49:22;;;;;;;8.57;2.28;;;14.00;94.80;;;;;;4968439;28;20102;-65
2022/09/14 06:51:49;;;;;;;15.77;2.72;;;14.00;94.80;;;;;;4990960;28;20055;-66
2022/09/14 06:54:15;;;;;;;6.47;2.28;;;14.00;94.80;;;;;;4936931;28;20113;-65
2022/09/14 06:56:42;;;;;;;9.57;2.58;;;14.00;94.80;;;;;;5003696;28;20103;-66
2022/09/14 06:59:10;;;;;;;10.35;2.63;;;14.10;94.80;;;;;;4962142;28;20734;-66
2022/09/14 07:01:37;;;;;;;10.48;2.20;;;14.10;94.70;;;;;;4969853;28;20104;-66
2022/09/14 07:04:04;;;;;;;7.93;2.40;;;14.10;94.80;;;;;;4941986;28;20042;-66
2022/09/14 07:06:41;;;;;;;11.32;2.63;;;14.10;94.70;;;;;;4955504;28;20050;-67
2022/09/14 07:09:08;;;;;;;13.18;2.75;;;14.00;94.90;;;;;;4985079;28;20055;-66
2022/09/14 07:11:34;;;;;;;12.45;2.63;;;14.10;95.00;;;;;;4966734;28;20428;-65
2022/09/14 07:14:01;;;;;;;9.40;2.65;;;14.10;94.80;;;;;;4971843;28;20076;-65
2022/09/14 07:16:29;;;;;;;8.38;2.33;;;14.20;94.80;;;;;;4975247;28;20129;-67
2022/09/14 07:19:00;;;;;;;10.27;2.50;;;14.30;94.90;;;;;;4974086;28;20507;-66
2022/09/14 07:21:26;;;;;;;7.03;2.22;;;14.30;94.80;;;;;;4972128;28;20120;-66
2022/09/14 07:23:52;;;;;;;7.93;2.50;;;14.30;94.80;;;;;;4969146;28;20485;-66
2022/09/14 07:26:23;;;;;;;13.60;2.60;;;14.40;94.70;;;;;;4966862;28;20049;-66
2022/09/14 07:29:02;;;;;;;13.43;3.20;;;14.30;94.80;;;;;;4970118;28;20463;-65
2022/09/14 07:31:49;;;;;;;11.55;2.63;;;14.40;94.90;;;;;;4937276;28;20074;-66
2022/09/14 07:34:15;;;;;;;11.00;2.45;;;14.50;94.80;;;;;;4950126;28;20507;-66
2022/09/14 07:36:41;;;;;;;8.65;2.85;;;14.50;94.80;;;;;;4968795;28;20074;-67
2022/09/14 07:39:08;;;;;;;9.70;2.75;;;14.60;94.60;;;;;;4996747;28;20050;-67
2022/09/14 07:41:34;;;;;;;11.85;3.58;;;14.70;94.60;;;;;;4956630;28;20341;-67
2022/09/14 07:44:02;;;;;;;10.45;2.78;;;14.70;94.50;;;;;;4971878;28;20053;-66
2022/09/14 07:46:31;;;;;;;12.88;2.90;;;14.80;94.50;;;;;;4921365;28;20039;-67
2022/09/14 07:48:59;;;;;;;8.77;2.75;;;14.80;94.30;;;;;;4973899;28;20050;-66
2022/09/14 07:51:25;;;;;;;12.27;3.30;;;14.80;94.20;;;;;;4985712;28;20042;-67
2022/09/14 07:53:51;;;;;;;11.10;2.58;;;14.90;94.20;;;;;;4938214;28;20050;-67
2022/09/14 07:56:20;;;;;;;10.20;2.78;;;14.90;94.10;;;;;;4941505;28;20184;-67
2022/09/14 07:58:50;;;;;;;;;;;15.00;94.00;;;;;;4967495;28;20177;-66
2022/09/14 08:01:17;;;;;;;12.00;2.80;;;15.00;93.80;;;;;;4953725;28;20218;-68
2022/09/14 08:03:43;;;;;;;10.30;3.28;;;15.10;93.80;;;;;;4937477;28;20126;-66
2022/09/14 08:06:12;;;;;;;15.27;3.13;;;15.10;93.70;;;;;;4942132;28;20047;-67
2022/09/14 08:08:40;;;;;;;7.43;2.80;;;15.10;93.70;;;;;;4954395;28;20361;-67
2022/09/14 08:11:14;;;;;;;10.40;2.85;;;15.20;93.60;;;;;;4977403;28;20047;-66
2022/09/14 08:13:44;;;;;;;9.70;3.50;;;15.20;93.60;;;;;;4924541;28;20042;-66
2022/09/14 08:16:11;;;;;;;11.15;3.42;;;15.30;93.80;;;;;;4954715;28;20058;-66
2022/09/14 08:18:37;;;;;;;13.82;3.50;;;15.30;93.50;;;;;;4939323;28;20066;-66
2022/09/14 08:21:14;;;;;;;12.30;3.30;;;15.30;93.40;;;;;;4965035;28;20465;-66
2022/09/14 08:23:40;;;;;;;15.45;3.83;;;15.30;93.20;;;;;;4922359;29;20062;-66
2022/09/14 08:26:12;;;;;;;9.77;3.25;;;15.40;93.20;;;;;;4956668;28;20138;-66
2022/09/14 08:28:38;;;;;;;10.05;3.03;;;15.40;93.20;;;;;;4971722;28;20046;-66
2022/09/14 08:31:17;;;;;;;9.68;2.78;;;15.40;93.00;;;;;;4975783;28;20038;-66
2022/09/14 08:33:57;;;;;;;12.25;2.75;;;15.50;93.00;;;;;;4937644;29;20500;-67
2022/09/14 08:36:24;;;;;;;7.13;2.67;;;15.50;93.00;;;;;;4958857;28;20046;-66
2022/09/14 08:38:50;;;;;;;7.82;2.60;;;15.60;93.00;;;;;;4969105;28;20070;-67
2022/09/14 08:41:33;;;;;;;11.13;2.90;;;15.70;92.90;;;;;;4950780;28;20437;-66
2022/09/14 08:44:33;;;;;;;12.07;3.20;;;15.70;92.90;;;;;;4955974;28;20057;-66
2022/09/14 08:47:11;;;;;;;13.02;3.28;;;15.80;92.80;;;;;;4954630;28;20043;-66
2022/09/14 08:50:11;;;;;;;9.27;2.65;;;15.80;92.80;;;;;;4936560;28;20075;-66
2022/09/14 08:52:42;;;;;;;9.45;2.80;;;15.90;92.70;;;;;;4963334;28;20050;-66
2022/09/14 08:55:32;;;;;;;10.68;2.63;;;16.00;92.60;;;;;;4937835;28;20158;-66
2022/09/14 08:58:10;;;;;;;11.98;3.05;;;16.00;92.70;;;;;;4953666;28;20058;-66
2022/09/14 09:01:02;;;;;;;9.80;2.30;;;16.10;92.40;;;;;;4965212;28;20055;-65
2022/09/14 09:03:50;;;;;;;13.80;3.20;;;16.10;92.30;;;;;;4967225;28;20145;-66
2022/09/14 09:06:42;;;;;;;11.13;2.30;;;16.20;91.90;;;;;;4965188;28;20067;-67
2022/09/14 09:09:43;;;;;;;10.90;2.17;;;16.30;92.00;;;;;;4963434;28;20322;-67
2022/09/14 09:12:39;;;;;;;8.43;2.42;;;16.50;92.00;;;;;;4954818;28;20047;-66
2022/09/14 09:15:23;;;;;;;9.38;2.08;;;16.50;91.80;;;;;;4951216;28;20047;-67
2022/09/14 09:18:35;;;;;;;10.18;1.92;;;16.60;91.70;;;;;;4939274;28;20047;-67
2022/09/14 09:31:07;;;;;;;6.35;1.60;;;16.90;90.90;;;;;;4956365;28;20448;-67
2022/09/14 09:44:02;;;;;;;7.38;1.67;;;17.30;90.70;;;;;;4952568;28;20051;-66
2022/09/14 09:46:32;;;;;;;10.50;1.90;;;17.50;89.50;;;;;;4932115;29;20078;-67
2022/09/14 09:49:01;;;;;;;8.57;2.38;;;17.50;90.20;;;;;;4955022;28;20102;-67
2022/09/14 09:51:31;;;;;;;10.93;1.95;;;17.70;89.30;;;;;;4936119;29;20094;-68
2022/09/14 09:54:06;;;;;;;7.72;1.70;;;17.90;89.30;;;;;;4937166;28;20573;-68
2022/09/14 09:56:39;;;;;;;12.30;1.70;;;18.00;88.30;;;;;;4967905;28;20775;-67
2022/09/14 09:59:21;;;;;;;9.68;1.77;;;17.90;87.00;;;;;;4953798;28;20121;-66
2022/09/14 10:01:47;;;;;;;9.20;1.77;;;17.80;82.40;;;;;;4953262;28;20109;-68
2022/09/14 10:04:27;;;;;;;10.75;2.10;;;17.90;84.00;;;;;;4958896;28;20051;-67
2022/09/14 10:06:56;;;;;;;5.45;1.70;;;17.90;85.40;;;;;;4952619;28;20062;-67
2022/09/14 10:09:26;;;;;;;11.23;1.70;;;18.00;84.30;;;;;;4916408;28;20669;-67
2022/09/14 10:12:02;;;;;;;7.40;1.60;;;17.90;79.20;;;;;;4935323;28;20369;-69
2022/09/14 10:14:30;;;;;;;5.90;1.67;;;17.90;81.10;;;;;;4958902;28;20861;-68
2022/09/14 10:17:19;;;;;;;6.05;1.52;;;18.00;82.20;;;;;;4951676;28;20074;-69
2022/09/14 10:19:53;;;;;;;8.95;1.50;;;18.10;84.00;;;;;;4935340;28;20443;-67
2022/09/14 10:22:35;;;;;;;11.25;2.03;;;18.10;82.00;;;;;;4918909;28;20098;-67
2022/09/14 10:25:04;;;;;;;6.22;1.40;;;18.20;81.30;;;;;;4951382;28;20047;-67
2022/09/14 10:27:32;;;;;;;9.88;1.67;;;18.10;82.20;;;;;;4981820;28;20368;-66
2022/09/14 10:29:59;;;;;;;7.10;1.80;;;18.10;83.70;;;;;;4955490;28;20794;-68
2022/09/14 10:32:24;;;;;;;5.95;1.58;;;18.20;84.50;;;;;;4979535;28;20097;-68
2022/09/14 10:34:50;;;;;;;9.60;1.83;;;18.30;84.60;;;;;;4950103;28;20135;-68
2022/09/14 10:37:27;;;;;;;5.80;1.23;;;18.30;83.30;;;;;;4935763;28;20109;-69
2022/09/14 10:40:15;;;;;;;10.25;1.55;;;18.40;83.50;;;;;;4968068;28;20086;-69
2022/09/14 10:43:00;;;;;;;11.48;1.83;;;18.50;81.80;;;;;;4951279;28;20058;-68
2022/09/14 10:45:39;;;;;;;7.10;1.60;;;18.50;81.90;;;;;;4917172;28;20453;-68
2022/09/14 10:48:44;;;;;;;11.65;1.80;;;18.60;83.20;;;;;;4950873;28;20058;-68
2022/09/14 10:51:43;;;;;;;6.95;1.83;;;18.60;82.00;;;;;;4977701;28;20043;-68
2022/09/14 10:54:49;;;;;;;6.53;1.50;;;18.60;81.90;;;;;;4918084;28;20047;-69
2022/09/14 10:57:19;;;;;;;5.97;1.70;;;18.50;83.30;;;;;;4950181;28;20433;-69
2022/09/14 10:59:57;;;;;;;9.20;1.73;;;18.50;83.00;;;;;;4969356;28;20069;-68
2022/09/14 11:02:49;;;;;;;6.63;1.80;;;18.50;83.60;;;;;;4984563;28;20058;-67
2022/09/14 11:05:26;;;;;;;8.85;1.77;;;18.50;83.80;;;;;;4950544;28;20145;-69
2022/09/14 11:08:02;;;;;;;7.55;1.70;;;18.50;82.40;;;;;;4955557;28;20042;-68
2022/09/14 11:10:30;;;;;;;7.32;1.83;;;18.40;81.60;;;;;;4950807;28;20485;-67
2022/09/14 11:13:09;;;;;;;5.32;1.40;;;18.40;82.00;;;;;;4958827;28;20050;-67
2022/09/14 11:15:53;;;;;;;6.70;1.50;;;18.40;81.00;;;;;;4936491;28;20494;-68
2022/09/14 11:18:30;;;;;;;6.45;1.27;;;18.30;81.20;;;;;;4934600;28;20047;-67
2022/09/14 11:21:04;;;;;;;8.43;1.33;;;18.30;79.40;;;;;;4950871;28;20066;-67
2022/09/14 11:23:57;;;;;;;8.32;2.00;;;18.20;82.20;;;;;;4954316;28;20370;-67
2022/09/14 11:26:33;;;;;;;6.75;2.05;;;18.30;82.40;;;;;;4940503;28;20070;-67
2022/09/14 11:29:05;;;;;;;7.38;1.75;;;18.30;82.00;;;;;;4955206;28;20047;-67
2022/09/14 11:31:40;;;;;;;5.85;1.73;;;18.30;81.60;;;;;;4958172;28;20042;-69
2022/09/14 11:34:18;;;;;;;7.50;1.58;;;18.30;82.20;;;;;;4950854;28;20040;-69
2022/09/14 11:36:47;;;;;;;6.28;1.35;;;18.30;82.10;;;;;;4949859;28;20053;-68
2022/09/14 11:39:49;;;;;;;7.93;1.85;;;18.30;82.10;;;;;;4950477;28;20058;-69
2022/09/14 11:42:21;;;;;;;6.45;1.58;;;18.20;79.50;;;;;;4946734;28;20047;-68
2022/09/14 11:44:51;;;;;;;6.07;1.88;;;18.10;80.20;;;;;;4946367;28;20435;-67
2022/09/14 11:47:21;;;;;;;5.85;1.90;;;18.20;81.50;;;;;;4941055;28;20047;-67
2022/09/14 11:49:59;;;;;;;5.15;1.48;;;18.20;81.40;;;;;;4921461;28;20051;-67
2022/09/14 11:52:33;;;;;;;6.80;1.92;;;18.10;81.80;;;;;;4960822;28;20043;-68
2022/09/14 11:55:05;;;;;;;5.97;1.40;;;18.10;82.10;;;;;;4937625;28;20059;-67
2022/09/14 11:57:32;;;;;;;9.45;1.70;;;18.10;81.80;;;;;;4934771;28;20047;-68
2022/09/14 12:00:05;;;;;;;6.57;1.80;;;18.10;81.60;;;;;;4965752;28;20063;-68
2022/09/14 12:02:31;;;;;;;6.57;1.50;;;18.10;82.00;;;;;;4938195;28;20058;-68
2022/09/14 12:05:06;;;;;;;7.03;2.03;;;18.10;82.20;;;;;;4978677;28;20047;-68
2022/09/14 12:07:50;;;;;;;6.78;1.75;;;18.20;81.50;;;;;;4973460;28;20177;-68
2022/09/14 12:10:19;;;;;;;5.97;1.55;;;18.20;81.70;;;;;;4966904;28;20046;-69
2022/09/14 12:12:52;;;;;;;6.78;1.92;;;18.20;81.60;;;;;;4953680;28;20137;-68
2022/09/14 12:15:24;;;;;;;7.47;1.80;;;18.10;79.90;;;;;;4970051;28;20128;-68
2022/09/14 12:18:08;;;;;;;9.82;1.80;;;18.10;78.50;;;;;;4970541;28;20047;-68
2022/09/14 12:20:41;;;;;;;9.10;2.15;;;18.00;78.40;;;;;;4973928;28;20050;-69
2022/09/14 12:23:26;;;;;;;10.85;1.63;;;18.00;79.40;;;;;;4953491;28;20125;-68
2022/09/14 12:26:24;;;;;;;8.70;1.90;;;18.10;80.40;;;;;;4969327;28;20109;-68
2022/09/14 12:28:52;;;;;;;5.75;1.60;;;18.10;80.60;;;;;;4971050;28;20052;-68
2022/09/14 12:31:31;;;;;;;7.32;1.60;;;18.10;80.40;;;;;;4937156;28;20782;-68
2022/09/14 12:34:15;;;;;;;4.30;1.55;;;18.10;81.40;;;;;;4969835;28;20046;-68
2022/09/14 12:36:41;;;;;;;8.38;1.77;;;18.10;80.40;;;;;;4954191;28;20113;-68
2022/09/14 12:39:26;;;;;;;7.07;1.70;;;18.10;81.40;;;;;;4974262;28;20043;-68
2022/09/14 12:41:52;;;;;;;7.15;1.70;;;18.10;80.00;;;;;;4974174;28;20055;-68
2022/09/14 12:44:33;;;;;;;5.80;1.60;;;18.10;81.10;;;;;;4990494;28;20369;-68
2022/09/14 12:47:24;;;;;;;6.95;2.03;;;18.00;81.80;;;;;;4956464;28;20109;-68
2022/09/14 12:50:03;;;;;;;7.38;1.80;;;18.10;81.40;;;;;;4974906;28;20683;-68
2022/09/14 12:53:17;;;;;;;6.18;1.35;;;18.00;81.60;;;;;;4956195;28;20042;-68
2022/09/14 12:56:00;;;;;;;8.48;1.80;;;18.00;81.10;;;;;;4963798;28;20180;-69
2022/09/14 12:58:42;;;;;;;10.23;1.70;;;18.00;81.80;;;;;;4970302;28;20065;-69
2022/09/14 13:01:17;;;;;;;7.88;1.63;;;17.90;81.60;;;;;;4979394;28;20532;-69
2022/09/14 13:03:50;;;;;;;6.65;1.50;;;17.90;81.10;;;;;;4973070;28;20479;-68
2022/09/14 13:06:16;;;;;;;7.28;1.98;;;17.90;81.00;;;;;;4974433;28;20403;-68
2022/09/14 13:08:53;;;;;;;9.68;1.75;;;17.90;80.90;;;;;;4959783;28;20477;-68
2022/09/14 13:11:37;;;;;;;5.90;1.63;;;17.80;80.40;;;;;;4969226;28;20043;-67
2022/09/14 13:14:03;;;;;;;6.70;1.48;;;17.80;81.80;;;;;;4988956;28;20113;-67
2022/09/14 13:16:36;;;;;;;8.68;1.52;;;17.90;81.80;;;;;;4957814;28;20136;-67
2022/09/14 13:19:03;;;;;;;6.57;1.23;;;17.80;82.60;;;;;;4971633;28;20077;-66
2022/09/14 13:21:29;;;;;;;5.00;1.40;;;17.80;79.30;;;;;;4973284;28;20137;-66
2022/09/14 13:23:55;;;;;;;7.18;1.60;;;17.80;80.30;;;;;;4965468;28;20058;-66
2022/09/14 13:26:26;;;;;;;3.72;1.00;;;17.70;80.10;;;;;;4942058;28;20038;-67
2022/09/14 13:28:53;;;;;;;8.25;1.50;;;17.70;79.50;;;;;;4940286;28;20356;-66
2022/09/14 13:31:32;;;;;;;5.40;0.95;;;17.70;78.50;;;;;;4963354;28;20073;-66
2022/09/14 13:33:58;;;;;;;7.03;1.40;;;17.60;78.80;;;;;;4977815;28;20042;-66